createdAt,value
2017-11-03T00:01:58.760Z,5.73
2017-11-03T00:04:36.336Z,5.63
2017-11-03T00:07:13.475Z,5.40
2017-11-03T00:09:54.778Z,5.77
2017-11-03T00:12:33.190Z,5.57
2017-11-03T00:15:25.688Z,5.67
2017-11-03T00:18:04.958Z,6.50
2017-11-03T00:20:44.242Z,5.93
2017-11-03T00:23:21.154Z,6.27
2017-11-03T00:26:03.545Z,5.83
2017-11-03T00:28:40.754Z,6.00
2017-11-03T00:31:18.193Z,5.93
2017-11-03T00:33:56.942Z,5.90
2017-11-03T00:36:40.047Z,5.17
2017-11-03T00:39:20.777Z,5.03
2017-11-03T00:41:57.898Z,6.20
2017-11-03T00:44:47.672Z,5.73
2017-11-03T00:47:25.167Z,5.53
2017-11-03T00:50:02.440Z,4.80
2017-11-03T00:52:42.093Z,5.70
2017-11-03T00:55:21.393Z,5.43
2017-11-03T01:03:59.270Z,5.37
2017-11-03T01:06:48.866Z,5.83
2017-11-03T01:09:41.105Z,5.63
2017-11-03T01:12:17.551Z,4.93
2017-11-03T01:14:55.063Z,5.10
2017-11-03T01:17:31.574Z,5.30
2017-11-03T01:20:13.571Z,5.03
2017-11-03T01:22:49.973Z,5.30
2017-11-03T01:25:31.507Z,5.80
2017-11-03T01:28:17.008Z,5.50
2017-11-03T01:30:54.867Z,4.73
2017-11-03T01:33:32.073Z,5.20
2017-11-03T01:36:12.313Z,4.40
2017-11-03T01:38:59.534Z,5.03
2017-11-03T01:41:35.246Z,4.60
2017-11-03T01:44:12.286Z,4.73
2017-11-03T01:46:48.617Z,5.30
2017-11-03T01:49:37.398Z,5.40
2017-11-03T01:52:14.540Z,4.90
2017-11-03T01:54:50.902Z,4.70
2017-11-03T01:57:30.890Z,4.80
2017-11-03T02:00:08.325Z,4.83
2017-11-03T02:02:53.865Z,4.87
2017-11-03T02:05:31.128Z,5.10
2017-11-03T02:08:07.958Z,4.30
2017-11-03T02:10:49.224Z,4.90
2017-11-03T02:13:29.345Z,6.27
2017-11-03T02:16:16.692Z,4.63
2017-11-03T02:18:54.786Z,4.80
2017-11-03T02:21:32.577Z,4.63
2017-11-03T02:24:10.173Z,4.87
2017-11-03T02:26:49.095Z,5.57
2017-11-03T02:29:33.957Z,4.80
2017-11-03T02:32:16.398Z,5.10
2017-11-03T02:34:53.218Z,4.80
2017-11-03T02:37:32.377Z,4.50
2017-11-03T02:40:09.058Z,5.27
2017-11-03T02:42:46.303Z,5.27
2017-11-03T02:45:24.853Z,4.93
2017-11-03T02:48:03.554Z,5.27
2017-11-03T02:50:43.330Z,6.00
2017-11-03T02:53:28.220Z,5.57
2017-11-03T02:56:07.222Z,5.70
2017-11-03T03:01:45.385Z,5.83
2017-11-03T03:04:21.854Z,6.33
2017-11-03T03:07:02.405Z,5.20
2017-11-03T03:09:44.029Z,5.87
2017-11-03T03:12:20.651Z,6.00
2017-11-03T03:15:13.095Z,5.43
2017-11-03T03:17:52.419Z,5.77
2017-11-03T03:20:37.438Z,5.20
2017-11-03T03:23:21.037Z,5.23
2017-11-03T03:26:09.545Z,6.17
2017-11-03T03:28:51.977Z,5.20
2017-11-03T03:31:29.529Z,5.10
2017-11-03T03:37:05.377Z,5.80
2017-11-03T03:39:50.019Z,6.47
2017-11-03T03:42:35.058Z,5.57
2017-11-03T03:45:18.337Z,6.03
2017-11-03T03:47:54.915Z,6.27
2017-11-03T03:50:38.507Z,5.83
2017-11-03T03:53:15.163Z,5.90
2017-11-03T03:55:56.739Z,5.87
2017-11-03T03:58:34.815Z,5.50
2017-11-03T04:01:18.819Z,5.93
2017-11-03T04:03:55.572Z,5.30
2017-11-03T04:06:32.970Z,5.60
2017-11-03T04:09:13.821Z,4.93
2017-11-03T04:11:53.638Z,5.20
2017-11-03T04:14:31.525Z,4.90
2017-11-03T04:17:10.667Z,6.00
2017-11-03T04:19:47.125Z,5.40
2017-11-03T04:22:24.096Z,5.17
2017-11-03T04:25:01.193Z,5.30
2017-11-03T04:27:43.085Z,5.00
2017-11-03T04:30:28.494Z,5.80
2017-11-03T04:35:50.737Z,4.60
2017-11-03T04:38:30.347Z,5.23
2017-11-03T04:41:07.646Z,5.60
2017-11-03T04:43:46.278Z,5.37
2017-11-03T04:46:26.876Z,5.10
2017-11-03T04:49:09.348Z,5.10
2017-11-03T04:51:46.211Z,5.37
2017-11-03T04:54:32.701Z,5.60
2017-11-03T05:04:37.934Z,6.40
2017-11-03T05:07:20.101Z,6.80
2017-11-03T05:10:08.071Z,6.20
2017-11-03T05:12:47.285Z,6.80
2017-11-03T05:15:25.759Z,6.30
2017-11-03T05:18:02.704Z,6.17
2017-11-03T05:20:44.316Z,5.90
2017-11-03T05:23:21.090Z,5.93
2017-11-03T05:25:57.782Z,6.07
2017-11-03T05:28:35.575Z,5.30
2017-11-03T05:31:16.514Z,5.20
2017-11-03T05:33:53.345Z,5.90
2017-11-03T05:36:30.075Z,5.37
2017-11-03T05:39:09.794Z,4.90
2017-11-03T05:41:48.823Z,5.57
2017-11-03T05:44:36.129Z,5.10
2017-11-03T05:47:12.494Z,6.47
2017-11-03T05:49:49.684Z,6.60
2017-11-03T05:52:27.792Z,8.97
2017-11-03T05:55:04.883Z,7.20
2017-11-03T05:57:42.802Z,6.40
2017-11-03T06:00:20.820Z,6.80
2017-11-03T06:02:58.102Z,5.33
2017-11-03T06:05:37.330Z,5.10
2017-11-03T06:08:13.822Z,6.77
2017-11-03T06:10:50.556Z,5.10
2017-11-03T06:13:27.505Z,5.33
2017-11-03T06:16:04.262Z,5.30
2017-11-03T06:18:41.460Z,4.83
2017-11-03T06:21:21.331Z,4.03
2017-11-03T06:24:00.231Z,4.43
2017-11-03T06:26:43.908Z,4.60
2017-11-03T06:29:25.960Z,4.90
2017-11-03T06:32:04.831Z,4.43
2017-11-03T06:34:44.010Z,4.13
2017-11-03T06:37:21.982Z,4.63
2017-11-03T06:39:58.704Z,5.77
2017-11-03T06:42:40.734Z,5.60
2017-11-03T06:45:21.387Z,5.17
2017-11-03T06:50:49.249Z,4.90
2017-11-03T06:53:27.708Z,4.70
2017-11-03T06:56:04.749Z,4.40
2017-11-03T06:58:33.982Z,4.70
2017-11-03T07:01:13.032Z,5.03
2017-11-03T07:03:50.186Z,6.40
2017-11-03T07:06:27.445Z,5.27
2017-11-03T07:09:05.073Z,6.30
2017-11-03T07:11:42.235Z,6.80
2017-11-03T07:17:07.493Z,6.90
2017-11-03T07:19:44.151Z,6.83
2017-11-03T07:22:20.796Z,6.50
2017-11-03T07:25:02.936Z,8.40
2017-11-03T07:27:39.382Z,6.30
2017-11-03T07:30:21.131Z,6.27
2017-11-03T07:32:59.475Z,8.03
2017-11-03T07:35:50.913Z,8.70
2017-11-03T07:38:32.639Z,9.30
2017-11-03T07:41:16.060Z,10.43
2017-11-03T07:43:57.223Z,8.30
2017-11-03T07:46:40.691Z,8.57
2017-11-03T07:49:23.747Z,8.83
2017-11-03T07:52:00.368Z,8.80
2017-11-03T07:54:38.879Z,8.80
2017-11-03T07:57:27.963Z,9.43
2017-11-03T08:00:04.352Z,9.43
2017-11-03T08:02:43.331Z,7.30
2017-11-03T08:05:21.872Z,7.10
2017-11-03T08:07:58.450Z,6.63
2017-11-03T08:10:39.419Z,7.13
2017-11-03T08:13:16.018Z,6.93
2017-11-03T08:15:55.016Z,8.10
2017-11-03T08:18:33.699Z,7.00
2017-11-03T08:21:14.766Z,7.83
2017-11-03T08:23:59.287Z,7.80
2017-11-03T08:26:37.292Z,8.53
2017-11-03T08:34:53.457Z,7.90
2017-11-03T08:37:30.143Z,8.20
2017-11-03T08:40:18.610Z,8.40
2017-11-03T08:45:43.452Z,7.60
2017-11-03T08:48:20.583Z,8.20
2017-11-03T08:50:59.068Z,10.30
2017-11-03T08:53:40.008Z,9.63
2017-11-03T09:01:58.401Z,8.20
2017-11-03T09:04:27.414Z,8.27
2017-11-03T09:06:56.707Z,9.20
2017-11-03T09:09:35.719Z,8.37
2017-11-03T09:12:17.499Z,7.60
2017-11-03T09:15:04.268Z,7.67
2017-11-03T09:17:43.462Z,8.73
2017-11-03T09:20:23.510Z,7.00
2017-11-03T09:23:04.539Z,9.10
2017-11-03T09:25:45.392Z,8.77
2017-11-03T09:28:33.114Z,10.50
2017-11-03T09:31:11.826Z,7.60
2017-11-03T09:33:49.932Z,7.90
2017-11-03T09:36:26.910Z,7.00
2017-11-03T09:39:03.583Z,8.90
2017-11-03T09:41:40.977Z,8.90
2017-11-03T09:44:21.812Z,9.83
2017-11-03T09:46:58.334Z,10.10
2017-11-03T09:49:40.513Z,13.30
2017-11-03T09:52:18.780Z,14.50
2017-11-03T09:54:55.220Z,13.47
2017-11-03T09:57:31.943Z,13.30
2017-11-03T10:00:08.540Z,12.63
2017-11-03T10:02:46.134Z,10.47
2017-11-03T10:05:22.986Z,12.00
2017-11-03T10:08:01.842Z,10.60
2017-11-03T10:10:38.769Z,7.50
2017-11-03T10:13:17.402Z,6.27
2017-11-03T10:15:59.678Z,5.70
2017-11-03T10:21:15.767Z,4.70
2017-11-03T10:23:54.222Z,5.00
2017-11-03T10:26:33.326Z,5.53
2017-11-03T10:29:15.921Z,6.17
2017-11-03T10:31:52.450Z,5.20
2017-11-03T10:34:30.224Z,6.10
2017-11-03T10:37:14.410Z,6.60
2017-11-03T10:39:53.826Z,5.70
2017-11-03T10:42:31.350Z,5.40
2017-11-03T10:45:08.131Z,4.87
2017-11-03T10:47:50.281Z,5.50
2017-11-03T10:50:27.401Z,4.67
2017-11-03T10:53:08.558Z,5.97
2017-11-03T10:55:46.931Z,5.23
2017-11-03T10:58:17.036Z,4.60
2017-11-03T11:00:53.354Z,6.10
2017-11-03T11:03:34.558Z,5.57
2017-11-03T11:06:16.196Z,4.90
2017-11-03T11:08:55.575Z,5.20
2017-11-03T11:11:32.592Z,5.30
2017-11-03T11:14:11.196Z,5.67
2017-11-03T11:16:47.818Z,6.20
2017-11-03T11:19:29.673Z,5.73
2017-11-03T11:22:17.989Z,4.90
2017-11-03T11:24:55.717Z,5.30
2017-11-03T11:27:36.566Z,5.90
2017-11-03T11:30:15.821Z,5.10
2017-11-03T11:32:53.362Z,5.03
2017-11-03T11:35:34.515Z,5.60
2017-11-03T11:38:11.324Z,5.60
2017-11-03T11:40:49.140Z,6.23
2017-11-03T11:43:27.211Z,5.63
2017-11-03T11:46:11.048Z,5.73
2017-11-03T11:48:47.912Z,5.80
2017-11-03T11:51:30.465Z,5.87
2017-11-03T11:54:11.193Z,6.57
2017-11-03T11:56:52.661Z,6.47
2017-11-03T11:59:30.223Z,6.37
2017-11-03T12:02:07.084Z,6.77
2017-11-03T12:04:58.449Z,6.67
2017-11-03T12:07:36.638Z,6.30
2017-11-03T12:10:13.030Z,6.27
2017-11-03T12:12:50.914Z,6.03
2017-11-03T12:15:39.133Z,6.67
2017-11-03T12:18:18.024Z,6.63
2017-11-03T12:20:59.233Z,5.10
2017-11-03T12:23:38.808Z,6.73
2017-11-03T12:26:18.235Z,6.50
2017-11-03T12:28:56.668Z,5.87
2017-11-03T12:31:33.576Z,6.33
2017-11-03T12:34:12.038Z,6.40
2017-11-03T12:36:53.042Z,5.30
2017-11-03T12:39:31.616Z,6.20
2017-11-03T12:42:12.561Z,6.10
2017-11-03T12:44:55.452Z,6.27
2017-11-03T12:47:31.928Z,5.70
2017-11-03T12:50:11.076Z,6.20
2017-11-03T12:52:47.510Z,6.63
2017-11-03T12:55:29.388Z,7.00
2017-11-03T12:57:58.520Z,5.70
2017-11-03T13:00:37.740Z,6.27
2017-11-03T13:03:06.774Z,8.27
2017-11-03T13:05:44.920Z,7.10
2017-11-03T13:08:26.459Z,8.53
2017-11-03T13:11:05.465Z,7.37
2017-11-03T13:13:41.871Z,6.60
2017-11-03T13:16:28.218Z,7.20
2017-11-03T13:19:05.019Z,5.87
2017-11-03T13:21:46.079Z,7.10
2017-11-03T13:24:22.775Z,6.07
2017-11-03T13:27:05.030Z,6.77
2017-11-03T13:29:41.674Z,6.33
2017-11-03T13:32:20.107Z,5.33
2017-11-03T13:34:57.092Z,6.30
2017-11-03T13:37:34.462Z,7.00
2017-11-03T13:40:12.643Z,6.93
2017-11-03T13:42:55.726Z,6.50
2017-11-03T13:45:41.454Z,8.00
2017-11-03T13:48:18.481Z,7.50
2017-11-03T13:50:55.620Z,8.30
2017-11-03T13:53:39.330Z,7.67
2017-11-03T13:56:20.042Z,7.07
2017-11-03T13:59:05.003Z,9.63
2017-11-03T14:01:41.622Z,9.10
2017-11-03T14:04:25.773Z,7.97
2017-11-03T14:07:02.521Z,8.70
2017-11-03T14:09:45.120Z,8.50
2017-11-03T14:12:28.011Z,8.83
2017-11-03T14:15:14.195Z,8.37
2017-11-03T14:17:55.699Z,8.33
2017-11-03T14:20:42.864Z,9.47
2017-11-03T14:23:22.080Z,8.97
2017-11-03T14:26:02.053Z,9.60
2017-11-03T14:28:44.085Z,8.90
2017-11-03T14:31:20.440Z,10.47
2017-11-03T14:33:58.327Z,10.50
2017-11-03T14:36:45.829Z,7.47
2017-11-03T14:39:26.596Z,8.03
2017-11-03T14:42:12.401Z,7.73
2017-11-03T14:44:50.612Z,8.00
2017-11-03T14:47:28.822Z,7.90
2017-11-03T14:50:10.525Z,8.10
2017-11-03T14:52:49.001Z,7.40
2017-11-03T14:55:31.547Z,7.30
2017-11-03T14:58:00.842Z,8.70
2017-11-03T15:00:37.140Z,7.93
2017-11-03T15:03:15.393Z,7.23
2017-11-03T15:05:54.484Z,7.60
2017-11-03T15:08:24.703Z,7.60
2017-11-03T15:11:01.212Z,7.23
2017-11-03T15:13:40.910Z,8.40
2017-11-03T15:16:30.378Z,8.00
2017-11-03T15:19:15.933Z,8.50
2017-11-03T15:21:56.681Z,7.57
2017-11-03T15:24:38.214Z,7.70
2017-11-03T15:27:16.911Z,8.53
2017-11-03T15:29:54.613Z,8.93
2017-11-03T15:32:43.777Z,8.77
2017-11-03T15:38:04.658Z,9.17
2017-11-03T15:40:45.758Z,8.40
2017-11-03T15:43:22.009Z,9.57
2017-11-03T15:46:04.144Z,10.03
2017-11-03T15:48:45.661Z,9.90
2017-11-03T15:51:23.177Z,8.90
2017-11-03T15:54:01.112Z,8.90
2017-11-03T15:56:38.068Z,10.43
2017-11-03T15:59:29.229Z,10.07
2017-11-03T16:02:07.548Z,10.10
2017-11-03T16:04:50.656Z,10.10
2017-11-03T16:07:32.709Z,11.47
2017-11-03T16:10:20.516Z,12.40
2017-11-03T16:13:02.115Z,11.90
2017-11-03T16:15:42.787Z,11.63
2017-11-03T16:18:25.754Z,13.73
2017-11-03T16:21:02.469Z,14.37
2017-11-03T16:23:41.510Z,12.27
2017-11-03T16:26:18.234Z,14.37
2017-11-03T16:28:56.150Z,17.37
2017-11-03T16:31:35.148Z,39.17
2017-11-03T16:34:15.962Z,33.20
2017-11-03T16:36:52.466Z,28.20
2017-11-03T16:39:37.574Z,19.03
2017-11-03T16:42:21.019Z,12.33
2017-11-03T16:45:02.770Z,12.30
2017-11-03T16:47:38.949Z,17.67
2017-11-03T16:50:15.650Z,16.20
2017-11-03T16:52:54.484Z,12.20
2017-11-03T16:58:16.400Z,12.77
2017-11-03T17:00:53.793Z,14.70
2017-11-03T17:03:31.021Z,12.50
2017-11-03T17:06:11.853Z,15.60
2017-11-03T17:08:51.022Z,12.73
2017-11-03T17:11:30.967Z,12.97
2017-11-03T17:14:12.173Z,15.60
2017-11-03T17:16:52.960Z,15.77
2017-11-03T17:19:30.665Z,17.40
2017-11-03T17:22:09.254Z,17.73
2017-11-03T17:24:48.088Z,19.20
2017-11-03T17:27:24.974Z,17.73
2017-11-03T17:30:02.857Z,16.73
2017-11-03T17:32:49.389Z,14.40
2017-11-03T17:35:26.084Z,14.93
2017-11-03T17:38:03.539Z,15.83
2017-11-03T17:40:40.181Z,14.10
2017-11-03T17:43:19.561Z,13.90
2017-11-03T17:46:00.518Z,14.53
2017-11-03T17:48:37.890Z,13.73
2017-11-03T17:51:16.064Z,13.77
2017-11-03T17:53:54.441Z,13.67
2017-11-03T17:56:32.132Z,14.40
2017-11-03T17:59:20.054Z,13.47
2017-11-03T18:01:56.684Z,14.67
2017-11-03T18:04:33.491Z,13.40
2017-11-03T18:07:10.289Z,15.53
2017-11-03T18:09:57.510Z,16.13
2017-11-03T18:12:34.686Z,16.90
2017-11-03T18:15:15.686Z,15.50
2017-11-03T18:17:57.055Z,18.87
2017-11-03T18:20:35.550Z,17.67
2017-11-03T18:23:17.616Z,17.60
2017-11-03T18:25:55.265Z,17.07
2017-11-03T18:28:33.655Z,19.37
2017-11-03T18:31:10.755Z,18.20
2017-11-03T18:33:52.702Z,18.20
2017-11-03T18:36:32.790Z,17.50
2017-11-03T18:39:18.120Z,18.23
2017-11-03T18:41:59.134Z,18.20
2017-11-03T18:44:40.363Z,18.50
2017-11-03T18:47:26.976Z,18.23
2017-11-03T18:50:07.797Z,17.60
2017-11-03T18:52:44.495Z,17.20
2017-11-03T18:55:22.917Z,17.00
2017-11-03T18:57:54.633Z,18.03
2017-11-03T19:00:33.759Z,17.13
2017-11-03T19:03:11.591Z,18.67
2017-11-03T19:05:48.381Z,15.73
2017-11-03T19:08:25.254Z,15.57
2017-11-03T19:11:04.177Z,16.97
2017-11-03T19:13:51.224Z,18.80
2017-11-03T19:16:32.294Z,16.67
2017-11-03T19:19:08.768Z,17.53
2017-11-03T19:21:46.552Z,18.43
2017-11-03T19:24:39.674Z,19.00
2017-11-03T19:27:16.400Z,17.73
2017-11-03T19:29:58.812Z,18.20
2017-11-03T19:32:45.645Z,18.50
2017-11-03T19:35:23.416Z,16.37
2017-11-03T19:38:01.508Z,17.53
2017-11-03T19:40:41.600Z,15.07
2017-11-03T19:43:18.407Z,17.27
2017-11-03T19:45:57.136Z,15.67
2017-11-03T19:48:42.632Z,16.03
2017-11-03T19:51:22.581Z,14.20
2017-11-03T19:53:59.784Z,15.63
2017-11-03T19:56:39.109Z,16.00
2017-11-03T19:59:15.908Z,16.13
2017-11-03T20:01:52.671Z,15.97
2017-11-03T20:04:29.541Z,16.33
2017-11-03T20:07:08.119Z,15.37
2017-11-03T20:09:44.931Z,17.73
2017-11-03T20:12:27.915Z,16.23
2017-11-03T20:15:04.525Z,16.53
2017-11-03T20:17:46.960Z,17.60
2017-11-03T20:20:25.773Z,17.07
2017-11-03T20:23:04.941Z,19.67
2017-11-03T20:25:45.653Z,23.30
2017-11-03T20:28:24.327Z,20.80
2017-11-03T20:31:03.282Z,18.37
2017-11-03T20:33:43.621Z,19.80
2017-11-03T20:36:20.881Z,19.67
2017-11-03T20:38:58.084Z,19.83
2017-11-03T20:41:35.632Z,18.83
2017-11-03T20:44:13.384Z,18.90
2017-11-03T20:46:50.392Z,22.47
2017-11-03T20:49:27.466Z,19.57
2017-11-03T20:52:08.587Z,17.57
2017-11-03T20:54:50.304Z,23.10
2017-11-03T20:57:19.270Z,18.57
2017-11-03T20:59:58.640Z,17.77
2017-11-03T21:02:39.923Z,16.50
2017-11-03T21:05:17.937Z,16.73
2017-11-03T21:07:54.747Z,18.37
2017-11-03T21:10:35.403Z,14.60
2017-11-03T21:13:13.653Z,19.03
2017-11-03T21:15:52.255Z,16.00
2017-11-03T21:18:29.557Z,17.60
2017-11-03T21:21:06.449Z,17.23
2017-11-03T21:23:43.263Z,17.30
2017-11-03T21:26:21.046Z,16.70
2017-11-03T21:29:02.324Z,15.63
2017-11-03T21:31:40.065Z,16.47
2017-11-03T21:34:20.783Z,16.60
2017-11-03T21:37:03.897Z,17.00
2017-11-03T21:39:40.430Z,16.90
2017-11-03T21:42:19.933Z,17.83
2017-11-03T21:44:57.271Z,18.97
2017-11-03T21:47:36.882Z,18.80
2017-11-03T21:50:19.467Z,20.37
2017-11-03T21:52:58.024Z,18.97
2017-11-03T21:55:37.150Z,19.80
2017-11-03T21:58:14.183Z,18.87
2017-11-03T22:00:51.896Z,19.47
2017-11-03T22:03:30.915Z,19.77
2017-11-03T22:06:09.638Z,17.00
2017-11-03T22:08:47.341Z,19.40
2017-11-03T22:11:24.420Z,19.97
2017-11-03T22:14:02.512Z,17.60
2017-11-03T22:16:41.138Z,18.17
2017-11-03T22:19:18.837Z,17.60
2017-11-03T22:21:55.404Z,16.33
2017-11-03T22:24:39.234Z,15.87
2017-11-03T22:27:18.141Z,15.17
2017-11-03T22:29:54.866Z,16.73
2017-11-03T22:32:31.637Z,15.00
2017-11-03T22:38:06.444Z,15.50
2017-11-03T22:40:47.546Z,16.20
2017-11-03T22:43:30.091Z,16.67
2017-11-03T22:46:10.061Z,16.90
2017-11-03T22:48:50.816Z,15.63
2017-11-03T22:51:29.353Z,16.47
2017-11-03T22:54:06.416Z,16.80
2017-11-03T22:56:44.259Z,19.07
2017-11-03T23:02:15.718Z,20.00
2017-11-03T23:05:03.302Z,18.17
2017-11-03T23:07:43.724Z,18.30
2017-11-03T23:10:21.500Z,16.90
2017-11-03T23:13:07.256Z,17.20
2017-11-03T23:15:44.504Z,15.47
2017-11-03T23:18:21.422Z,15.57
2017-11-03T23:20:59.458Z,15.57
2017-11-03T23:23:31.418Z,16.13
2017-11-03T23:26:09.082Z,15.53
2017-11-03T23:28:49.051Z,15.90
2017-11-03T23:31:27.387Z,15.87
2017-11-03T23:34:08.266Z,16.00
2017-11-03T23:36:46.717Z,16.07
2017-11-03T23:39:31.027Z,16.43
2017-11-03T23:42:08.308Z,16.27
2017-11-03T23:44:52.130Z,16.80
2017-11-03T23:47:28.761Z,17.93
2017-11-03T23:50:05.836Z,16.13
2017-11-03T23:52:47.747Z,16.33
2017-11-03T23:55:26.472Z,16.33
2017-11-03T23:58:03.523Z,14.87
